sensor_id;sensor_type;location;lat;lon;timestamp;pressure;altitude;pressure_sealevel;temperature;humidity
64551;BME280;50945;44.472;-123.352;2022-12-10T00:01:10;99112.34;;;4.56;93.33
64551;BME280;50945;44.472;-123.352;2022-12-10T00:03:37;99111.34;;;4.57;93.49
64551;BME280;50945;44.472;-123.352;2022-12-10T00:06:09;99100.34;;;4.59;93.82
64551;BME280;50945;44.472;-123.352;2022-12-10T00:08:36;99103.88;;;4.59;93.52
64551;BME280;50945;44.472;-123.352;2022-12-10T00:11:06;99087.81;;;4.57;93.76
64551;BME280;50945;44.472;-123.352;2022-12-10T00:13:34;99077.00;;;4.57;93.47
64551;BME280;50945;44.472;-123.352;2022-12-10T00:16:07;99074.78;;;4.61;93.18
64551;BME280;50945;44.472;-123.352;2022-12-10T00:18:35;99062.06;;;4.62;93.43
64551;BME280;50945;44.472;-123.352;2022-12-10T00:21:06;99060.56;;;4.59;93.64
64551;BME280;50945;44.472;-123.352;2022-12-10T00:23:34;99050.75;;;4.58;93.84
64551;BME280;50945;44.472;-123.352;2022-12-10T00:26:06;99053.63;;;4.56;93.50
64551;BME280;50945;44.472;-123.352;2022-12-10T00:28:33;99047.38;;;4.56;93.77
64551;BME280;50945;44.472;-123.352;2022-12-10T00:31:11;99038.63;;;4.54;93.90
64551;BME280;50945;44.472;-123.352;2022-12-10T00:33:37;99041.16;;;4.55;94.21
64551;BME280;50945;44.472;-123.352;2022-12-10T00:36:07;99029.28;;;4.56;93.74
64551;BME280;50945;44.472;-123.352;2022-12-10T00:38:34;99019.31;;;4.57;94.01
64551;BME280;50945;44.472;-123.352;2022-12-10T00:41:00;99007.63;;;4.56;93.91
64551;BME280;50945;44.472;-123.352;2022-12-10T00:43:27;99005.63;;;4.59;93.87
64551;BME280;50945;44.472;-123.352;2022-12-10T00:45:53;99006.44;;;4.59;93.50
64551;BME280;50945;44.472;-123.352;2022-12-10T00:48:20;99007.63;;;4.56;94.67
64551;BME280;50945;44.472;-123.352;2022-12-10T00:51:11;98995.78;;;4.57;94.00
64551;BME280;50945;44.472;-123.352;2022-12-10T00:53:39;98991.22;;;4.58;93.93
64551;BME280;50945;44.472;-123.352;2022-12-10T00:56:07;98986.50;;;4.60;93.84
64551;BME280;50945;44.472;-123.352;2022-12-10T00:58:36;98977.31;;;4.61;94.23
64551;BME280;50945;44.472;-123.352;2022-12-10T01:03:37;98974.28;;;4.64;93.95
64551;BME280;50945;44.472;-123.352;2022-12-10T01:06:34;98967.63;;;4.67;93.84
64551;BME280;50945;44.472;-123.352;2022-12-10T01:09:04;98955.97;;;4.66;93.63
64551;BME280;50945;44.472;-123.352;2022-12-10T01:11:33;98951.56;;;4.65;94.04
64551;BME280;50945;44.472;-123.352;2022-12-10T01:14:00;98940.75;;;4.65;94.13
64551;BME280;50945;44.472;-123.352;2022-12-10T01:16:26;98930.59;;;4.67;94.69
64551;BME280;50945;44.472;-123.352;2022-12-10T01:18:54;98938.53;;;4.69;94.68
64551;BME280;50945;44.472;-123.352;2022-12-10T01:21:21;98921.63;;;4.67;94.52
64551;BME280;50945;44.472;-123.352;2022-12-10T01:23:48;98909.78;;;4.68;94.79
64551;BME280;50945;44.472;-123.352;2022-12-10T01:26:18;98912.50;;;4.68;94.51
64551;BME280;50945;44.472;-123.352;2022-12-10T01:28:46;98897.09;;;4.68;94.53
64551;BME280;50945;44.472;-123.352;2022-12-10T01:31:18;98899.59;;;4.70;94.43
64551;BME280;50945;44.472;-123.352;2022-12-10T01:33:45;98882.84;;;4.74;94.32
64551;BME280;50945;44.472;-123.352;2022-12-10T01:36:13;98884.31;;;4.77;95.21
64551;BME280;50945;44.472;-123.352;2022-12-10T01:38:40;98881.59;;;4.77;94.59
64551;BME280;50945;44.472;-123.352;2022-12-10T01:41:10;98869.78;;;4.78;94.49
64551;BME280;50945;44.472;-123.352;2022-12-10T01:49:06;98857.72;;;4.81;94.33
64551;BME280;50945;44.472;-123.352;2022-12-10T01:51:35;98847.72;;;4.81;94.33
64551;BME280;50945;44.472;-123.352;2022-12-10T01:54:04;98846.53;;;4.84;94.63
64551;BME280;50945;44.472;-123.352;2022-12-10T01:56:32;98830.28;;;4.84;94.38
64551;BME280;50945;44.472;-123.352;2022-12-10T01:59:01;98822.16;;;4.84;94.91
64551;BME280;50945;44.472;-123.352;2022-12-10T02:06:48;98815.16;;;4.89;94.87
64551;BME280;50945;44.472;-123.352;2022-12-10T02:15:22;98802.72;;;4.95;94.79
64551;BME280;50945;44.472;-123.352;2022-12-10T02:20:22;98775.47;;;4.97;94.73
64551;BME280;50945;44.472;-123.352;2022-12-10T02:22:56;98768.16;;;4.97;95.04
64551;BME280;50945;44.472;-123.352;2022-12-10T02:26:09;98765.47;;;4.97;95.39
64551;BME280;50945;44.472;-123.352;2022-12-10T02:31:11;98747.84;;;5.01;95.41
64551;BME280;50945;44.472;-123.352;2022-12-10T02:33:43;98747.63;;;5.03;95.29
64551;BME280;50945;44.472;-123.352;2022-12-10T02:36:13;98762.66;;;5.05;94.77
64551;BME280;50945;44.472;-123.352;2022-12-10T02:38:41;98748.94;;;5.07;95.05
64551;BME280;50945;44.472;-123.352;2022-12-10T02:41:15;98752.31;;;5.09;95.30
64551;BME280;50945;44.472;-123.352;2022-12-10T02:43:49;98733.34;;;5.09;95.32
64551;BME280;50945;44.472;-123.352;2022-12-10T02:46:17;98725.22;;;5.09;96.09
64551;BME280;50945;44.472;-123.352;2022-12-10T02:48:46;98724.19;;;5.10;96.27
64551;BME280;50945;44.472;-123.352;2022-12-10T02:51:14;98727.72;;;5.10;95.68
64551;BME280;50945;44.472;-123.352;2022-12-10T02:53:44;98727.56;;;5.12;95.96
64551;BME280;50945;44.472;-123.352;2022-12-10T02:56:30;98719.03;;;5.15;95.78
64551;BME280;50945;44.472;-123.352;2022-12-10T02:59:25;98718.84;;;5.17;95.79
64551;BME280;50945;44.472;-123.352;2022-12-10T03:02:13;98705.09;;;5.18;95.45
64551;BME280;50945;44.472;-123.352;2022-12-10T03:07:18;98692.22;;;5.20;96.15
64551;BME280;50945;44.472;-123.352;2022-12-10T03:09:59;98676.59;;;5.22;95.65
64551;BME280;50945;44.472;-123.352;2022-12-10T03:12:37;98681.81;;;5.24;96.14
64551;BME280;50945;44.472;-123.352;2022-12-10T03:15:08;98694.34;;;5.25;95.70
64551;BME280;50945;44.472;-123.352;2022-12-10T03:17:38;98675.38;;;5.25;95.50
64551;BME280;50945;44.472;-123.352;2022-12-10T03:20:08;98685.22;;;5.26;95.65
64551;BME280;50945;44.472;-123.352;2022-12-10T03:22:43;98680.44;;;5.28;95.71
64551;BME280;50945;44.472;-123.352;2022-12-10T03:25:13;98692.75;;;5.30;95.73
64551;BME280;50945;44.472;-123.352;2022-12-10T03:27:43;98686.31;;;5.31;95.69
64551;BME280;50945;44.472;-123.352;2022-12-10T03:30:12;98672.56;;;5.33;95.78
64551;BME280;50945;44.472;-123.352;2022-12-10T03:32:38;98665.47;;;5.32;96.01
64551;BME280;50945;44.472;-123.352;2022-12-10T03:35:06;98648.81;;;5.35;96.27
64551;BME280;50945;44.472;-123.352;2022-12-10T03:37:33;98646.94;;;5.36;95.72
64551;BME280;50945;44.472;-123.352;2022-12-10T03:40:00;98642.16;;;5.38;95.56
64551;BME280;50945;44.472;-123.352;2022-12-10T03:42:27;98646.56;;;5.39;96.78
64551;BME280;50945;44.472;-123.352;2022-12-10T03:44:53;98640.97;;;5.40;95.33
64551;BME280;50945;44.472;-123.352;2022-12-10T03:47:20;98642.44;;;5.43;95.67
64551;BME280;50945;44.472;-123.352;2022-12-10T03:49:46;98633.94;;;5.46;95.65
64551;BME280;50945;44.472;-123.352;2022-12-10T03:52:15;98636.63;;;5.46;95.23
64551;BME280;50945;44.472;-123.352;2022-12-10T03:54:42;98650.00;;;5.47;95.44
64551;BME280;50945;44.472;-123.352;2022-12-10T03:57:11;98627.25;;;5.48;95.21
64551;BME280;50945;44.472;-123.352;2022-12-10T03:59:37;98618.13;;;5.49;95.22
64551;BME280;50945;44.472;-123.352;2022-12-10T04:02:05;98621.66;;;5.50;95.72
64551;BME280;50945;44.472;-123.352;2022-12-10T04:04:32;98616.03;;;5.51;95.09
64551;BME280;50945;44.472;-123.352;2022-12-10T04:06:58;98626.88;;;5.51;95.45
64551;BME280;50945;44.472;-123.352;2022-12-10T04:09:25;98616.69;;;5.53;95.44
64551;BME280;50945;44.472;-123.352;2022-12-10T04:11:58;98603.13;;;5.53;95.19
64551;BME280;50945;44.472;-123.352;2022-12-10T04:14:26;98618.38;;;5.55;95.24
64551;BME280;50945;44.472;-123.352;2022-12-10T04:17:11;98605.84;;;5.53;95.81
64551;BME280;50945;44.472;-123.352;2022-12-10T04:19:41;98612.94;;;5.55;95.97
64551;BME280;50945;44.472;-123.352;2022-12-10T04:22:09;98630.88;;;5.56;95.63
64551;BME280;50945;44.472;-123.352;2022-12-10T04:24:55;98601.06;;;5.56;95.40
64551;BME280;50945;44.472;-123.352;2022-12-10T04:27:40;98590.84;;;5.58;95.78
64551;BME280;50945;44.472;-123.352;2022-12-10T04:30:09;98600.66;;;5.59;95.60
64551;BME280;50945;44.472;-123.352;2022-12-10T04:32:41;98601.31;;;5.61;95.50
64551;BME280;50945;44.472;-123.352;2022-12-10T04:35:10;98602.38;;;5.60;95.54
64551;BME280;50945;44.472;-123.352;2022-12-10T04:37:37;98596.06;;;5.59;96.03
64551;BME280;50945;44.472;-123.352;2022-12-10T04:40:04;98571.50;;;5.61;95.79
64551;BME280;50945;44.472;-123.352;2022-12-10T04:42:32;98583.16;;;5.61;95.63
64551;BME280;50945;44.472;-123.352;2022-12-10T04:44:58;98587.56;;;5.62;95.51
64551;BME280;50945;44.472;-123.352;2022-12-10T04:47:26;98565.88;;;5.62;95.56
64551;BME280;50945;44.472;-123.352;2022-12-10T04:49:52;98554.00;;;5.63;96.17
64551;BME280;50945;44.472;-123.352;2022-12-10T04:52:19;98547.72;;;5.63;95.87
64551;BME280;50945;44.472;-123.352;2022-12-10T04:54:45;98561.91;;;5.65;95.39
64551;BME280;50945;44.472;-123.352;2022-12-10T04:57:12;98569.22;;;5.64;95.74
64551;BME280;50945;44.472;-123.352;2022-12-10T04:59:39;98580.25;;;5.63;95.52
64551;BME280;50945;44.472;-123.352;2022-12-10T05:02:06;98581.13;;;5.63;96.20
64551;BME280;50945;44.472;-123.352;2022-12-10T05:04:33;98590.72;;;5.66;95.78
64551;BME280;50945;44.472;-123.352;2022-12-10T05:07:00;98569.03;;;5.66;96.20
64551;BME280;50945;44.472;-123.352;2022-12-10T05:09:27;98558.19;;;5.66;96.15
64551;BME280;50945;44.472;-123.352;2022-12-10T05:11:56;98564.44;;;5.66;95.21
64551;BME280;50945;44.472;-123.352;2022-12-10T05:14:23;98570.91;;;5.65;95.41
64551;BME280;50945;44.472;-123.352;2022-12-10T05:16:51;98572.56;;;5.66;95.78
64551;BME280;50945;44.472;-123.352;2022-12-10T05:19:18;98569.03;;;5.66;95.62
64551;BME280;50945;44.472;-123.352;2022-12-10T05:21:49;98577.16;;;5.66;96.35
64551;BME280;50945;44.472;-123.352;2022-12-10T05:24:34;98573.44;;;5.67;96.20
64551;BME280;50945;44.472;-123.352;2022-12-10T05:27:04;98565.06;;;5.68;95.65
64551;BME280;50945;44.472;-123.352;2022-12-10T05:29:33;98568.47;;;5.70;95.28
64551;BME280;50945;44.472;-123.352;2022-12-10T05:32:00;98572.00;;;5.71;96.01
64551;BME280;50945;44.472;-123.352;2022-12-10T05:34:29;98581.16;;;5.70;95.93
64551;BME280;50945;44.472;-123.352;2022-12-10T05:36:56;98573.69;;;5.72;95.82
64551;BME280;50945;44.472;-123.352;2022-12-10T05:39:22;98569.28;;;5.71;96.21
64551;BME280;50945;44.472;-123.352;2022-12-10T05:41:49;98561.16;;;5.71;95.92
64551;BME280;50945;44.472;-123.352;2022-12-10T05:44:15;98558.44;;;5.71;95.81
64551;BME280;50945;44.472;-123.352;2022-12-10T05:46:42;98571.81;;;5.72;95.64
64551;BME280;50945;44.472;-123.352;2022-12-10T05:49:08;98558.06;;;5.74;95.76
64551;BME280;50945;44.472;-123.352;2022-12-10T05:51:37;98564.50;;;5.73;95.98
64551;BME280;50945;44.472;-123.352;2022-12-10T05:54:05;98568.72;;;5.76;95.36
64551;BME280;50945;44.472;-123.352;2022-12-10T05:56:32;98557.84;;;5.76;95.81
64551;BME280;50945;44.472;-123.352;2022-12-10T05:59:01;98561.41;;;5.76;95.73
64551;BME280;50945;44.472;-123.352;2022-12-10T06:01:30;98550.38;;;5.78;95.27
64551;BME280;50945;44.472;-123.352;2022-12-10T06:03:59;98555.78;;;5.78;95.17
64551;BME280;50945;44.472;-123.352;2022-12-10T06:06:29;98553.50;;;5.81;94.73
64551;BME280;50945;44.472;-123.352;2022-12-10T06:08:56;98558.75;;;5.83;94.70
64551;BME280;50945;44.472;-123.352;2022-12-10T06:11:23;98557.50;;;5.85;94.73
64551;BME280;50945;44.472;-123.352;2022-12-10T06:13:49;98557.50;;;5.85;94.83
64551;BME280;50945;44.472;-123.352;2022-12-10T06:16:16;98552.72;;;5.87;94.51
64551;BME280;50945;44.472;-123.352;2022-12-10T06:18:42;98556.91;;;5.90;94.48
64551;BME280;50945;44.472;-123.352;2022-12-10T06:21:12;98567.34;;;5.93;93.98
64551;BME280;50945;44.472;-123.352;2022-12-10T06:23:39;98553.59;;;5.95;94.16
64551;BME280;50945;44.472;-123.352;2022-12-10T06:26:12;98549.69;;;5.97;93.61
64551;BME280;50945;44.472;-123.352;2022-12-10T06:28:40;98548.44;;;6.00;93.60
64551;BME280;50945;44.472;-123.352;2022-12-10T06:31:06;98551.78;;;6.02;93.40
64551;BME280;50945;44.472;-123.352;2022-12-10T06:33:33;98542.63;;;6.03;93.48
64551;BME280;50945;44.472;-123.352;2022-12-10T06:36:03;98546.56;;;6.00;93.58
64551;BME280;50945;44.472;-123.352;2022-12-10T06:38:31;98537.78;;;5.98;93.60
64551;BME280;50945;44.472;-123.352;2022-12-10T06:40:57;98529.19;;;5.95;94.05
64551;BME280;50945;44.472;-123.352;2022-12-10T06:43:24;98526.88;;;5.92;94.08
64551;BME280;50945;44.472;-123.352;2022-12-10T06:45:50;98522.88;;;5.87;94.59
64551;BME280;50945;44.472;-123.352;2022-12-10T06:48:16;98539.97;;;5.88;94.41
64551;BME280;50945;44.472;-123.352;2022-12-10T06:50:43;98533.72;;;5.87;93.84
64551;BME280;50945;44.472;-123.352;2022-12-10T06:53:09;98532.91;;;5.87;94.83
64551;BME280;50945;44.472;-123.352;2022-12-10T06:55:37;98542.91;;;5.86;95.06
64551;BME280;50945;44.472;-123.352;2022-12-10T06:58:06;98548.34;;;5.86;95.32
64551;BME280;50945;44.472;-123.352;2022-12-10T07:00:33;98555.41;;;5.87;95.31
64551;BME280;50945;44.472;-123.352;2022-12-10T07:02:59;98546.44;;;5.87;95.99
64551;BME280;50945;44.472;-123.352;2022-12-10T07:05:26;98542.25;;;5.84;95.39
64551;BME280;50945;44.472;-123.352;2022-12-10T07:07:52;98530.56;;;5.84;95.24
64551;BME280;50945;44.472;-123.352;2022-12-10T07:10:18;98530.56;;;5.84;94.99
64551;BME280;50945;44.472;-123.352;2022-12-10T07:12:45;98533.72;;;5.87;94.84
64551;BME280;50945;44.472;-123.352;2022-12-10T07:15:12;98537.06;;;5.89;94.67
64551;BME280;50945;44.472;-123.352;2022-12-10T07:17:38;98531.44;;;5.91;94.88
64551;BME280;50945;44.472;-123.352;2022-12-10T07:20:06;98527.53;;;5.94;94.75
64551;BME280;50945;44.472;-123.352;2022-12-10T07:22:34;98526.47;;;5.95;94.71
64551;BME280;50945;44.472;-123.352;2022-12-10T07:25:01;98524.63;;;5.95;94.49
64551;BME280;50945;44.472;-123.352;2022-12-10T07:27:29;98505.63;;;5.95;94.72
64551;BME280;50945;44.472;-123.352;2022-12-10T07:29:57;98487.50;;;5.96;94.22
64551;BME280;50945;44.472;-123.352;2022-12-10T07:32:23;98481.22;;;5.95;94.10
64551;BME280;50945;44.472;-123.352;2022-12-10T07:34:50;98495.81;;;5.94;94.03
64551;BME280;50945;44.472;-123.352;2022-12-10T07:37:16;98491.41;;;5.93;93.90
64551;BME280;50945;44.472;-123.352;2022-12-10T07:39:42;98500.19;;;5.95;93.86
64551;BME280;50945;44.472;-123.352;2022-12-10T07:42:09;98491.03;;;5.96;93.77
64551;BME280;50945;44.472;-123.352;2022-12-10T07:44:36;98484.41;;;5.99;93.67
64551;BME280;50945;44.472;-123.352;2022-12-10T07:47:02;98469.78;;;6.00;93.64
64551;BME280;50945;44.472;-123.352;2022-12-10T07:49:29;98458.72;;;6.01;93.45
64551;BME280;50945;44.472;-123.352;2022-12-10T07:51:55;98448.72;;;6.02;93.41
64551;BME280;50945;44.472;-123.352;2022-12-10T07:54:22;98458.53;;;6.03;93.39
64551;BME280;50945;44.472;-123.352;2022-12-10T07:56:48;98455.00;;;6.02;93.56
64551;BME280;50945;44.472;-123.352;2022-12-10T07:59:15;98456.66;;;6.03;93.27
64551;BME280;50945;44.472;-123.352;2022-12-10T08:01:41;98449.78;;;6.07;93.48
64551;BME280;50945;44.472;-123.352;2022-12-10T08:04:08;98443.13;;;6.10;93.39
64551;BME280;50945;44.472;-123.352;2022-12-10T08:06:35;98442.91;;;6.12;93.36
64551;BME280;50945;44.472;-123.352;2022-12-10T08:09:01;98445.00;;;6.09;93.32
64551;BME280;50945;44.472;-123.352;2022-12-10T08:11:28;98443.13;;;6.10;93.77
64551;BME280;50945;44.472;-123.352;2022-12-10T08:13:55;98450.00;;;6.13;93.76
64551;BME280;50945;44.472;-123.352;2022-12-10T08:16:22;98430.19;;;6.12;93.78
64551;BME280;50945;44.472;-123.352;2022-12-10T08:18:52;98451.88;;;6.12;93.08
64551;BME280;50945;44.472;-123.352;2022-12-10T08:21:23;98434.78;;;6.12;93.13
64551;BME280;50945;44.472;-123.352;2022-12-10T08:23:50;98436.25;;;6.14;93.13
64551;BME280;50945;44.472;-123.352;2022-12-10T08:26:18;98433.31;;;6.16;93.01
64551;BME280;50945;44.472;-123.352;2022-12-10T08:28:47;98426.03;;;6.16;92.91
64551;BME280;50945;44.472;-123.352;2022-12-10T08:31:18;98423.31;;;6.16;93.20
64551;BME280;50945;44.472;-123.352;2022-12-10T08:33:45;98423.53;;;6.15;93.53
64551;BME280;50945;44.472;-123.352;2022-12-10T08:36:14;98424.56;;;6.14;94.17
64551;BME280;50945;44.472;-123.352;2022-12-10T08:38:41;98414.75;;;6.13;93.92
64551;BME280;50945;44.472;-123.352;2022-12-10T08:41:17;98417.66;;;6.11;93.93
64551;BME280;50945;44.472;-123.352;2022-12-10T08:43:44;98421.22;;;6.12;93.74
64551;BME280;50945;44.472;-123.352;2022-12-10T08:46:12;98431.22;;;6.11;93.72
64551;BME280;50945;44.472;-123.352;2022-12-10T08:48:39;98418.91;;;6.08;93.77
64551;BME280;50945;44.472;-123.352;2022-12-10T08:51:06;98419.53;;;6.11;93.92
64551;BME280;50945;44.472;-123.352;2022-12-10T08:53:33;98418.06;;;6.08;94.24
64551;BME280;50945;44.472;-123.352;2022-12-10T08:56:00;98432.66;;;6.07;94.25
64551;BME280;50945;44.472;-123.352;2022-12-10T08:58:26;98424.53;;;6.07;94.48
64551;BME280;50945;44.472;-123.352;2022-12-10T09:00:53;98414.75;;;6.06;94.38
64551;BME280;50945;44.472;-123.352;2022-12-10T09:03:19;98420.38;;;6.04;94.32
64551;BME280;50945;44.472;-123.352;2022-12-10T09:05:45;98416.78;;;6.04;94.66
64551;BME280;50945;44.472;-123.352;2022-12-10T09:08:12;98403.84;;;5.99;94.82
64551;BME280;50945;44.472;-123.352;2022-12-10T09:10:39;98399.66;;;5.97;94.95
64551;BME280;50945;44.472;-123.352;2022-12-10T09:13:06;98397.13;;;5.95;95.55
64551;BME280;50945;44.472;-123.352;2022-12-10T09:15:32;98399.19;;;5.93;95.05
64551;BME280;50945;44.472;-123.352;2022-12-10T09:17:59;98411.50;;;5.89;95.28
64551;BME280;50945;44.472;-123.352;2022-12-10T09:20:25;98401.47;;;5.89;95.24
64551;BME280;50945;44.472;-123.352;2022-12-10T09:22:52;98403.34;;;5.89;95.16
64551;BME280;50945;44.472;-123.352;2022-12-10T09:25:18;98393.53;;;5.88;95.10
64551;BME280;50945;44.472;-123.352;2022-12-10T09:27:47;98385.63;;;5.86;94.89
64551;BME280;50945;44.472;-123.352;2022-12-10T09:30:14;98383.13;;;5.85;95.57
64551;BME280;50945;44.472;-123.352;2022-12-10T09:32:40;98380.59;;;5.83;95.80
64551;BME280;50945;44.472;-123.352;2022-12-10T09:35:07;98382.47;;;5.83;95.17
64551;BME280;50945;44.472;-123.352;2022-12-10T09:37:33;98379.34;;;5.79;95.41
64551;BME280;50945;44.472;-123.352;2022-12-10T09:40:00;98383.72;;;5.80;95.36
64551;BME280;50945;44.472;-123.352;2022-12-10T09:42:38;98398.53;;;5.78;95.30
64551;BME280;50945;44.472;-123.352;2022-12-10T09:45:20;98376.81;;;5.78;95.47
64551;BME280;50945;44.472;-123.352;2022-12-10T09:48:01;98382.66;;;5.75;95.41
64551;BME280;50945;44.472;-123.352;2022-12-10T09:50:41;98382.44;;;5.76;95.63
64551;BME280;50945;44.472;-123.352;2022-12-10T09:53:12;98373.69;;;5.74;96.09
64551;BME280;50945;44.472;-123.352;2022-12-10T09:55:44;98359.28;;;5.74;95.22
64551;BME280;50945;44.472;-123.352;2022-12-10T09:58:21;98356.56;;;5.74;95.08
64551;BME280;50945;44.472;-123.352;2022-12-10T10:01:00;98366.38;;;5.75;95.10
64551;BME280;50945;44.472;-123.352;2022-12-10T10:03:32;98370.97;;;5.74;94.67
64551;BME280;50945;44.472;-123.352;2022-12-10T10:06:03;98363.88;;;5.73;94.90
64551;BME280;50945;44.472;-123.352;2022-12-10T10:08:38;98360.13;;;5.74;94.63
64551;BME280;50945;44.472;-123.352;2022-12-10T10:11:29;98350.13;;;5.75;94.82
64551;BME280;50945;44.472;-123.352;2022-12-10T10:14:13;98348.84;;;5.77;94.17
64551;BME280;50945;44.472;-123.352;2022-12-10T10:19:13;98323.44;;;5.78;94.58
64551;BME280;50945;44.472;-123.352;2022-12-10T10:21:42;98313.41;;;5.79;94.48
64551;BME280;50945;44.472;-123.352;2022-12-10T10:24:17;98310.69;;;5.79;94.05
64551;BME280;50945;44.472;-123.352;2022-12-10T10:26:44;98298.63;;;5.81;93.94
64551;BME280;50945;44.472;-123.352;2022-12-10T10:29:17;98296.75;;;5.82;93.71
64551;BME280;50945;44.472;-123.352;2022-12-10T10:31:44;98285.50;;;5.85;93.44
64551;BME280;50945;44.472;-123.352;2022-12-10T10:34:20;98300.91;;;5.84;93.40
64551;BME280;50945;44.472;-123.352;2022-12-10T10:36:52;98300.91;;;5.84;93.22
64551;BME280;50945;44.472;-123.352;2022-12-10T10:39:30;98292.78;;;5.84;93.60
64551;BME280;50945;44.472;-123.352;2022-12-10T10:41:58;98294.66;;;5.84;93.43
64551;BME280;50945;44.472;-123.352;2022-12-10T10:44:33;98293.63;;;5.85;93.03
64551;BME280;50945;44.472;-123.352;2022-12-10T10:47:00;98279.22;;;5.84;92.87
64551;BME280;50945;44.472;-123.352;2022-12-10T10:49:32;98259.84;;;5.87;92.31
64551;BME280;50945;44.472;-123.352;2022-12-10T10:52:04;98256.09;;;5.88;92.33
64551;BME280;50945;44.472;-123.352;2022-12-10T10:54:34;98244.19;;;5.89;92.11
64551;BME280;50945;44.472;-123.352;2022-12-10T10:57:11;98230.44;;;5.91;91.81
64551;BME280;50945;44.472;-123.352;2022-12-10T10:59:39;98246.28;;;5.94;91.08
64551;BME280;50945;44.472;-123.352;2022-12-10T11:02:23;98247.78;;;5.97;91.64
64551;BME280;50945;44.472;-123.352;2022-12-10T11:04:55;98249.47;;;5.98;90.89
64551;BME280;50945;44.472;-123.352;2022-12-10T11:07:41;98248.44;;;5.99;91.13
64551;BME280;50945;44.472;-123.352;2022-12-10T11:10:17;98242.78;;;6.00;91.29
64551;BME280;50945;44.472;-123.352;2022-12-10T11:13:10;98241.75;;;6.01;91.01
64551;BME280;50945;44.472;-123.352;2022-12-10T11:15:42;98255.31;;;6.01;91.03
64551;BME280;50945;44.472;-123.352;2022-12-10T11:18:38;98256.34;;;6.00;91.41
64551;BME280;50945;44.472;-123.352;2022-12-10T11:23:46;98280.13;;;6.05;91.22
64551;BME280;50945;44.472;-123.352;2022-12-10T11:34:50;98293.69;;;6.05;91.61
64551;BME280;50945;44.472;-123.352;2022-12-10T11:43:29;98278.03;;;6.00;92.20
64551;BME280;50945;44.472;-123.352;2022-12-10T11:52:00;98274.25;;;5.95;92.64
64551;BME280;50945;44.472;-123.352;2022-12-10T11:54:46;98270.91;;;5.93;92.89
64551;BME280;50945;44.472;-123.352;2022-12-10T11:57:45;98269.25;;;5.92;92.80
64551;BME280;50945;44.472;-123.352;2022-12-10T12:00:20;98254.22;;;5.89;92.65
64551;BME280;50945;44.472;-123.352;2022-12-10T12:03:07;98256.91;;;5.89;92.97
64551;BME280;50945;44.472;-123.352;2022-12-10T12:14:43;98234.22;;;5.97;91.71
64551;BME280;50945;44.472;-123.352;2022-12-10T12:19:44;98226.47;;;5.94;92.12
64551;BME280;50945;44.472;-123.352;2022-12-10T12:22:16;98250.88;;;5.94;91.73
64551;BME280;50945;44.472;-123.352;2022-12-10T12:24:48;98231.28;;;5.92;91.83
64551;BME280;50945;44.472;-123.352;2022-12-10T12:27:43;98250.47;;;5.90;91.92
64551;BME280;50945;44.472;-123.352;2022-12-10T12:30:17;98253.19;;;5.90;92.21
64551;BME280;50945;44.472;-123.352;2022-12-10T12:32:54;98252.97;;;5.92;91.83
64551;BME280;50945;44.472;-123.352;2022-12-10T12:35:32;98254.63;;;5.93;91.64
64551;BME280;50945;44.472;-123.352;2022-12-10T12:38:03;98254.44;;;5.94;91.47
64551;BME280;50945;44.472;-123.352;2022-12-10T12:40:56;98252.53;;;5.95;90.70
64551;BME280;50945;44.472;-123.352;2022-12-10T12:45:59;98252.78;;;6.00;90.34
64551;BME280;50945;44.472;-123.352;2022-12-10T12:49:27;98236.94;;;6.03;89.73
64551;BME280;50945;44.472;-123.352;2022-12-10T12:54:19;98237.34;;;6.07;90.08
64551;BME280;50945;44.472;-123.352;2022-12-10T12:57:07;98244.66;;;6.06;89.95
64551;BME280;50945;44.472;-123.352;2022-12-10T13:00:05;98267.41;;;6.05;89.74
64551;BME280;50945;44.472;-123.352;2022-12-10T13:05:16;98269.28;;;6.05;90.37
64551;BME280;50945;44.472;-123.352;2022-12-10T13:07:44;98258.00;;;6.01;90.77
64551;BME280;50945;44.472;-123.352;2022-12-10T13:10:53;98273.25;;;5.96;91.36
64551;BME280;50945;44.472;-123.352;2022-12-10T13:15:56;98280.91;;;5.92;91.46
64551;BME280;50945;44.472;-123.352;2022-12-10T13:18:41;98276.53;;;5.91;91.46
64551;BME280;50945;44.472;-123.352;2022-12-10T13:23:52;98281.13;;;5.90;91.53
64551;BME280;50945;44.472;-123.352;2022-12-10T13:26:29;98272.16;;;5.90;91.34
64551;BME280;50945;44.472;-123.352;2022-12-10T13:29:43;98271.31;;;5.89;91.62
64551;BME280;50945;44.472;-123.352;2022-12-10T13:32:04;98285.28;;;5.86;91.54
64551;BME280;50945;44.472;-123.352;2022-12-10T13:34:39;98287.16;;;5.86;92.11
64551;BME280;50945;44.472;-123.352;2022-12-10T13:37:27;98283.81;;;5.84;92.30
64551;BME280;50945;44.472;-123.352;2022-12-10T13:42:43;98288.81;;;5.80;92.34
64551;BME280;50945;44.472;-123.352;2022-12-10T13:45:33;98272.75;;;5.79;92.36
64551;BME280;50945;44.472;-123.352;2022-12-10T13:48:23;98278.78;;;5.81;92.14
64551;BME280;50945;44.472;-123.352;2022-12-10T13:56:41;98271.91;;;5.78;91.80
64551;BME280;50945;44.472;-123.352;2022-12-10T14:04:54;98275.03;;;5.75;91.60
64551;BME280;50945;44.472;-123.352;2022-12-10T14:07:27;98273.16;;;5.76;91.51
64551;BME280;50945;44.472;-123.352;2022-12-10T14:09:54;98271.50;;;5.75;91.29
64551;BME280;50945;44.472;-123.352;2022-12-10T14:15:24;98277.75;;;5.75;91.25
64551;BME280;50945;44.472;-123.352;2022-12-10T14:17:52;98277.94;;;5.74;91.21
64551;BME280;50945;44.472;-123.352;2022-12-10T14:20:23;98267.09;;;5.74;91.10
64551;BME280;50945;44.472;-123.352;2022-12-10T14:22:52;98273.56;;;5.72;91.02
64551;BME280;50945;44.472;-123.352;2022-12-10T14:25:22;98274.41;;;5.73;91.16
64551;BME280;50945;44.472;-123.352;2022-12-10T14:27:53;98275.22;;;5.74;90.89
64551;BME280;50945;44.472;-123.352;2022-12-10T14:30:22;98269.81;;;5.74;90.68
64551;BME280;50945;44.472;-123.352;2022-12-10T14:32:50;98279.00;;;5.72;90.84
64551;BME280;50945;44.472;-123.352;2022-12-10T14:35:21;98291.72;;;5.72;90.86